Time;durP1;ratioP1;P1;durP2;ratioP2;P2;SDS_P1;SDS_P2;PMS_P1;PMS_P2;Temp;Humidity;BMP_temperature;BMP_pressure;BME280_temperature;BME280_humidity;BME280_pressure;Samples;Min_cycle;Max_cycle;Signal;HPM_P1;HPM_P2
2021/03/15 00:00:21;;;;;;;7.10;3.85;;;1.90;99.90;;;1.24;93.32;100141.78;5057170;28;20183;-47
2021/03/15 00:02:51;;;;;;;5.60;3.65;;;1.90;99.90;;;1.22;93.14;100147.03;5049013;28;20262;-46
2021/03/15 00:05:17;;;;;;;6.75;4.00;;;1.80;99.90;;;1.20;93.00;100145.47;5048411;28;20033;-48
2021/03/15 00:07:43;;;;;;;6.22;4.53;;;1.80;99.90;;;1.19;93.23;100159.22;5050137;28;20359;-49
2021/03/15 00:10:10;;;;;;;6.80;4.50;;;1.80;99.90;;;1.12;93.17;100160.50;5068330;28;20047;-49
2021/03/15 00:12:38;;;;;;;7.03;4.35;;;1.70;99.90;;;1.08;93.30;100159.84;5053198;28;20045;-47
2021/03/15 00:15:06;;;;;;;6.18;3.58;;;1.70;99.90;;;1.11;93.31;100156.28;5051647;28;20040;-50
2021/03/15 00:17:32;;;;;;;4.97;2.35;;;1.70;99.90;;;1.17;92.77;100151.59;5067100;28;20024;-47
2021/03/15 00:19:58;;;;;;;4.80;2.65;;;1.80;99.90;;;1.18;92.25;100149.84;5067566;28;20483;-50
2021/03/15 00:22:24;;;;;;;5.43;3.20;;;1.70;99.90;;;1.13;92.42;100146.75;5067919;28;20116;-51
2021/03/15 00:24:50;;;;;;;4.53;2.47;;;1.70;99.90;;;1.10;92.35;100162.31;5048384;28;20047;-50
2021/03/15 00:27:16;;;;;;;4.90;3.08;;;1.70;99.90;;;1.13;92.66;100164.69;5052344;28;20037;-47
2021/03/15 00:29:42;;;;;;;3.45;2.13;;;1.70;99.90;;;1.11;92.08;100162.22;5066829;28;20036;-47
2021/03/15 00:32:08;;;;;;;5.70;2.08;;;1.70;99.90;;;1.09;92.13;100155.53;5067812;28;20025;-46
2021/03/15 00:34:34;;;;;;;6.63;2.88;;;1.70;99.90;;;1.06;92.29;100161.69;5047946;28;20036;-48
2021/03/15 00:37:01;;;;;;;5.53;3.47;;;1.70;99.90;;;0.98;92.23;100159.56;5049997;28;20048;-49
2021/03/15 00:39:28;;;;;;;6.25;4.28;;;1.60;99.90;;;0.90;92.70;100159.22;5061184;28;20135;-48
2021/03/15 00:41:54;;;;;;;8.88;3.13;;;1.50;99.90;;;0.86;93.13;100154.34;5068350;28;20067;-49
2021/03/15 00:44:21;;;;;;;4.97;2.70;;;1.40;99.90;;;0.95;93.26;100148.66;5055202;28;20049;-51
2021/03/15 00:46:46;;;;;;;5.70;3.20;;;1.50;99.90;;;0.96;92.93;100143.44;5047870;28;20041;-47
2021/03/15 00:49:12;;;;;;;7.30;3.10;;;1.50;99.90;;;0.99;92.52;100157.81;5054899;28;20124;-51
2021/03/15 00:51:38;;;;;;;6.80;3.05;;;1.60;99.90;;;0.96;92.46;100146.00;5068030;28;20078;-49
2021/03/15 00:54:04;;;;;;;6.93;3.00;;;1.60;99.90;;;0.97;92.71;100157.09;5063285;28;20265;-48
2021/03/15 00:56:30;;;;;;;4.45;2.80;;;1.60;99.90;;;0.96;92.33;100148.56;5067679;28;20025;-48
2021/03/15 00:58:56;;;;;;;4.55;2.35;;;1.50;99.90;;;0.94;92.48;100153.00;5066633;28;20516;-49
2021/03/15 01:01:22;;;;;;;4.97;2.67;;;1.50;99.90;;;0.97;92.50;100157.09;5067652;28;20670;-48
2021/03/15 01:03:48;;;;;;;4.65;2.45;;;1.50;99.90;;;0.97;92.23;100155.34;5061783;28;20065;-50
2021/03/15 01:06:14;;;;;;;4.93;2.55;;;1.50;99.90;;;1.00;91.98;100154.34;5047403;28;20206;-48
2021/03/15 01:08:42;;;;;;;3.80;1.75;;;1.60;99.90;;;1.00;92.21;100160.28;5050311;28;20044;-46
2021/03/15 01:11:09;;;;;;;5.70;2.30;;;1.60;99.90;;;0.97;92.05;100160.47;5065925;28;20036;-52
2021/03/15 01:13:36;;;;;;;4.50;2.25;;;1.60;99.90;;;0.90;92.12;100159.22;5063110;28;20048;-51
2021/03/15 01:16:03;;;;;;;4.78;2.50;;;1.60;99.90;;;0.88;92.19;100149.97;5069628;28;20044;-51
2021/03/15 01:18:29;;;;;;;4.68;2.17;;;1.50;99.90;;;0.81;92.54;100144.38;5051141;28;20527;-52
2021/03/15 01:20:55;;;;;;;4.55;1.77;;;1.40;99.90;;;0.80;92.56;100147.03;5051196;28;20033;-48
2021/03/15 01:23:22;;;;;;;4.40;1.92;;;1.40;99.90;;;0.75;92.40;100147.28;5064955;28;20471;-48
2021/03/15 01:25:48;;;;;;;6.53;2.05;;;1.40;99.90;;;0.72;92.50;100146.66;5071200;28;20353;-48
2021/03/15 01:28:17;;;;;;;7.75;2.55;;;1.30;99.90;;;0.70;92.47;100146.72;5053427;28;20036;-48
2021/03/15 01:30:45;;;;;;;5.95;3.20;;;1.30;99.90;;;0.61;92.62;100148.09;5050913;28;20032;-47
2021/03/15 01:33:12;;;;;;;5.75;3.47;;;1.20;99.90;;;0.51;92.83;100143.56;5063332;28;20459;-47
2021/03/15 01:35:39;;;;;;;8.02;4.57;;;1.10;99.90;;;0.43;93.59;100146.59;5069152;28;20041;-47
2021/03/15 01:38:06;;;;;;;9.77;4.57;;;1.00;99.90;;;0.38;93.62;100153.72;5070842;28;20477;-50
2021/03/15 01:40:35;;;;;;;9.70;4.47;;;1.00;99.90;;;0.40;94.23;100156.22;5068459;28;20036;-52
2021/03/15 01:43:01;;;;;;;5.80;2.17;;;1.00;99.90;;;0.43;94.17;100153.47;5070093;28;20059;-48
2021/03/15 01:45:27;;;;;;;7.03;2.50;;;1.00;99.90;;;0.47;93.91;100149.81;5058549;28;20055;-48
2021/03/15 01:47:53;;;;;;;6.25;3.60;;;1.20;99.90;;;0.42;93.91;100141.56;5050577;28;20087;-48
2021/03/15 01:50:20;;;;;;;5.40;2.53;;;1.00;99.90;;;0.41;93.57;100142.47;5057477;28;20113;-45
2021/03/15 01:52:48;;;;;;;4.65;3.05;;;1.00;99.90;;;0.41;93.67;100145.88;5070567;28;20038;-50
2021/03/15 01:55:17;;;;;;;5.25;2.42;;;1.00;99.90;;;0.33;93.33;100146.31;5067078;28;20032;-50
2021/03/15 01:57:44;;;;;;;5.30;3.05;;;1.00;99.90;;;0.29;93.93;100157.63;5070635;28;20032;-47
2021/03/15 02:00:12;;;;;;;4.32;1.65;;;0.90;99.90;;;0.33;93.65;100148.88;5047885;28;20033;-51
2021/03/15 02:03:01;;;;;;;5.60;2.30;;;1.00;99.90;;;0.33;93.83;100159.13;5050458;28;20368;-50
2021/03/15 02:05:28;;;;;;;4.13;1.70;;;0.90;99.90;;;0.34;93.31;100162.50;5041615;28;20084;-50
2021/03/15 02:07:55;;;;;;;5.03;2.60;;;0.90;99.90;;;0.30;93.46;100159.28;5050251;28;20037;-51
2021/03/15 02:10:22;;;;;;;3.60;1.73;;;0.90;99.90;;;0.31;93.84;100160.94;5065918;28;20040;-50
2021/03/15 02:13:20;;;;;;;4.65;2.42;;;0.90;99.90;;;0.38;93.31;100158.84;5066364;28;20448;-47
2021/03/15 02:16:10;;;;;;;4.63;2.50;;;1.00;99.90;;;0.35;93.31;100159.03;5068286;28;20040;-49
2021/03/15 02:18:58;;;;;;;6.32;2.70;;;0.90;99.90;;;0.37;93.37;100157.22;5053185;28;20869;-50
2021/03/15 02:22:10;;;;;;;5.70;2.40;;;1.00;99.90;;;0.37;92.78;100153.81;5066003;28;20083;-51
2021/03/15 02:25:06;;;;;;;5.20;2.33;;;1.00;99.90;;;0.35;93.05;100156.47;5070211;28;20059;-52
2021/03/15 02:28:18;;;;;;;3.83;1.85;;;0.90;99.90;;;0.35;93.07;100153.06;5069017;28;20472;-51
2021/03/15 02:31:30;;;;;;;3.10;2.22;;;0.90;99.90;;;0.30;92.92;100163.59;5066339;28;20040;-51
2021/03/15 02:34:39;;;;;;;4.43;1.85;;;0.90;99.90;;;0.20;93.41;100147.91;5069821;28;20500;-50
2021/03/15 02:37:10;;;;;;;6.28;2.72;;;0.80;99.90;;;0.14;93.13;100155.09;5065412;28;20052;-47
2021/03/15 02:39:44;;;;;;;3.50;1.58;;;0.70;99.90;;;0.10;93.89;100157.00;5069688;28;20033;-54
2021/03/15 02:42:16;;;;;;;5.50;1.95;;;0.70;99.90;;;0.11;93.62;100152.72;5065516;28;20090;-47
2021/03/15 02:44:46;;;;;;;3.85;1.92;;;0.70;99.90;;;0.10;93.38;100157.00;5051586;28;20082;-45
2021/03/15 02:47:18;;;;;;;2.67;1.35;;;0.70;99.90;;;0.12;93.59;100155.19;5065432;28;20168;-51
2021/03/15 02:49:47;;;;;;;4.13;1.38;;;0.70;99.90;;;0.17;93.21;100162.63;5064770;28;20033;-47
2021/03/15 02:52:17;;;;;;;2.75;1.00;;;0.70;99.90;;;0.21;93.00;100158.97;5050723;28;20170;-47
2021/03/15 02:54:46;;;;;;;1.98;1.05;;;0.70;99.90;;;0.21;92.62;100157.25;5047879;28;20058;-46
2021/03/15 02:57:19;;;;;;;3.63;1.20;;;0.70;99.90;;;0.22;92.60;100160.63;5046671;28;20048;-46
2021/03/15 02:59:50;;;;;;;2.92;1.17;;;0.80;99.90;;;0.29;91.98;100151.69;5047394;28;20035;-47
2021/03/15 03:02:18;;;;;;;3.75;1.25;;;0.80;99.90;;;0.25;91.68;100151.03;5047499;28;20037;-49
2021/03/15 03:04:47;;;;;;;1.67;0.80;;;0.80;99.90;;;0.26;91.68;100155.25;5051532;28;20112;-49
2021/03/15 03:07:16;;;;;;;2.70;0.88;;;0.80;99.90;;;0.28;91.49;100150.84;5064607;28;20049;-49
2021/03/15 03:09:43;;;;;;;3.22;1.40;;;0.80;99.90;;;0.23;91.67;100152.84;5068853;28;20050;-50
2021/03/15 03:12:13;;;;;;;2.22;0.82;;;0.80;99.90;;;0.21;91.90;100154.69;5046191;28;20351;-51
2021/03/15 03:14:41;;;;;;;1.92;0.75;;;0.80;99.90;;;0.20;91.46;100153.03;5047728;28;20062;-51
2021/03/15 03:17:09;;;;;;;2.22;0.82;;;0.80;99.90;;;0.24;91.12;100148.56;5058002;28;20043;-51
2021/03/15 03:19:38;;;;;;;1.40;0.75;;;0.90;99.90;;;0.26;91.36;100149.28;5050804;28;20055;-47
2021/03/15 03:22:06;;;;;;;2.33;1.00;;;0.80;99.90;;;0.30;90.89;100149.03;5066217;28;20078;-48
2021/03/15 03:24:33;;;;;;;2.17;0.68;;;0.80;99.90;;;0.27;90.76;100149.22;5051105;28;20021;-48
2021/03/15 03:27:00;;;;;;;1.63;0.80;;;0.80;99.90;;;0.26;90.85;100155.25;5047357;28;20075;-46
2021/03/15 03:29:28;;;;;;;2.55;0.70;;;0.80;99.90;;;0.30;90.63;100138.78;5048678;28;20471;-48
2021/03/15 03:31:57;;;;;;;2.50;0.80;;;0.90;99.90;;;0.38;90.18;100140.09;5053461;28;20500;-53
2021/03/15 03:34:24;;;;;;;2.42;1.13;;;0.90;99.90;;;0.31;90.51;100135.31;5048908;28;20039;-49
2021/03/15 03:36:50;;;;;;;2.13;0.85;;;0.90;99.90;;;0.24;90.62;100134.00;5064510;28;20492;-49
2021/03/15 03:39:17;;;;;;;1.58;0.90;;;0.80;99.90;;;0.24;91.19;100134.00;5050890;28;20032;-47
2021/03/15 03:41:42;;;;;;;1.58;0.65;;;0.80;99.90;;;0.24;90.78;100130.63;5066215;28;20033;-45
2021/03/15 03:44:13;;;;;;;3.92;1.55;;;0.80;99.90;;;0.20;91.10;100135.09;5067493;28;20037;-50
2021/03/15 03:46:41;;;;;;;3.92;1.20;;;0.70;99.90;;;0.17;91.47;100142.13;5067239;28;20078;-53
2021/03/15 03:49:09;;;;;;;2.25;0.73;;;0.70;99.90;;;0.14;91.22;100132.88;5068309;28;20071;-50
2021/03/15 03:52:07;;;;;;;3.15;1.10;;;0.70;99.90;;;0.05;91.38;100135.94;5067455;28;20032;-51
2021/03/15 03:54:38;;;;;;;3.80;1.02;;;0.70;99.90;;;-0.03;91.73;100131.28;5047895;28;20204;-50
2021/03/15 03:57:11;;;;;;;8.05;1.98;;;0.60;99.90;;;-0.07;91.72;100126.41;5045876;28;20377;-50
2021/03/15 03:59:45;;;;;;;6.75;1.60;;;0.50;99.90;;;-0.12;91.82;100128.41;5068270;28;20028;-52
2021/03/15 04:02:12;;;;;;;9.38;1.58;;;0.50;99.90;;;-0.22;92.39;100129.81;5047143;28;20442;-50
2021/03/15 04:04:50;;;;;;;3.47;2.13;;;0.40;99.90;;;-0.27;93.12;100142.03;5050503;28;20029;-49
2021/03/15 04:07:24;;;;;;;4.72;1.17;;;0.30;99.90;;;-0.26;93.06;100128.31;5045513;28;20043;-48
2021/03/15 04:10:13;;;;;;;3.08;0.47;;;0.30;99.90;;;-0.25;92.65;100119.72;5050248;28;20526;-51
2021/03/15 04:12:53;;;;;;;2.25;0.50;;;0.30;99.90;;;-0.18;92.32;100127.00;5063726;28;20131;-49
2021/03/15 04:15:19;;;;;;;2.78;0.55;;;0.40;99.90;;;-0.13;92.26;100119.06;5049729;28;20119;-51
2021/03/15 04:17:48;;;;;;;2.35;0.60;;;0.40;99.90;;;-0.06;91.76;100126.31;5045963;28;20029;-47
2021/03/15 04:20:35;;;;;;;3.63;0.70;;;0.40;99.90;;;-0.11;91.28;100122.38;5041686;28;20037;-51
2021/03/15 04:23:07;;;;;;;4.15;0.85;;;0.50;99.90;;;-0.17;91.88;100117.56;5046867;28;20040;-50
2021/03/15 04:25:37;;;;;;;2.72;0.77;;;0.40;99.90;;;-0.20;91.77;100112.63;5050727;28;20036;-52
2021/03/15 04:28:08;;;;;;;3.38;0.88;;;0.30;99.90;;;-0.23;91.72;100112.78;5051440;28;20051;-49
2021/03/15 04:30:35;;;;;;;1.50;0.70;;;0.30;99.90;;;-0.26;91.94;100110.41;5067919;28;20071;-51
2021/03/15 04:33:02;;;;;;;4.65;0.70;;;0.30;99.90;;;-0.29;92.23;100102.88;5046951;28;20028;-47
2021/03/15 04:35:31;;;;;;;1.83;0.80;;;0.40;99.90;;;-0.29;92.08;100115.69;5046744;28;20373;-46
2021/03/15 04:38:06;;;;;;;2.50;0.60;;;0.30;99.90;;;-0.28;92.47;100120.72;5048113;28;20028;-52
2021/03/15 04:40:35;;;;;;;0.85;0.40;;;0.30;99.90;;;-0.23;92.13;100117.91;5058423;28;20028;-49
2021/03/15 04:43:03;;;;;;;2.83;1.85;;;0.30;99.90;;;-0.19;92.37;100116.84;5048274;28;20059;-47
2021/03/15 04:45:36;;;;;;;2.00;0.80;;;0.40;99.90;;;-0.23;91.62;100117.91;5047978;28;20106;-51
2021/03/15 04:48:05;;;;;;;1.65;0.45;;;0.40;99.90;;;-0.21;91.69;100116.09;5048769;28;20129;-50
2021/03/15 04:50:33;;;;;;;1.60;0.20;;;0.40;99.90;;;-0.20;91.30;100116.00;5053674;28;20070;-54
2021/03/15 04:53:02;;;;;;;1.60;0.32;;;0.40;99.90;;;-0.13;90.76;100129.31;5050832;28;20212;-51
2021/03/15 04:55:28;;;;;;;1.52;0.50;;;0.40;99.90;;;-0.16;90.91;100120.06;5070982;28;20048;-50
2021/03/15 04:57:58;;;;;;;2.20;0.45;;;0.50;99.90;;;-0.21;91.14;100123.78;5067571;28;20032;-50
2021/03/15 05:00:25;;;;;;;2.10;0.50;;;0.40;99.90;;;-0.18;91.24;100121.06;5049799;28;20073;-51
2021/03/15 05:02:52;;;;;;;3.33;0.57;;;0.40;99.90;;;-0.14;91.75;100114.84;5055191;28;20045;-49
2021/03/15 05:05:18;;;;;;;2.92;0.50;;;0.40;99.90;;;-0.20;91.56;100112.63;5051708;28;20037;-52
2021/03/15 05:07:48;;;;;;;12.43;0.85;;;0.40;99.90;;;-0.20;92.21;100115.19;5060721;28;20032;-50
2021/03/15 05:10:17;;;;;;;1.38;0.70;;;0.40;99.90;;;-0.19;92.38;100109.97;5051786;28;20071;-51
2021/03/15 05:12:44;;;;;;;5.32;0.52;;;0.30;99.90;;;-0.17;92.75;100112.47;5067059;28;20491;-51
2021/03/15 05:15:12;;;;;;;1.98;0.57;;;0.40;99.90;;;-0.23;92.21;100113.63;5053368;28;20115;-52
2021/03/15 05:17:40;;;;;;;2.22;0.40;;;0.40;99.90;;;-0.23;92.49;100123.03;5067385;28;20087;-51
2021/03/15 05:20:14;;;;;;;7.43;0.57;;;0.30;99.90;;;-0.24;92.76;100114.53;5051654;28;20029;-47
2021/03/15 05:22:42;;;;;;;122.80;8.18;;;0.30;99.90;;;-0.14;94.28;100123.34;5053315;28;20047;-47
2021/03/15 05:25:12;;;;;;;13.32;1.05;;;0.30;99.90;;;-0.09;93.43;100125.66;5048605;28;20106;-48
2021/03/15 05:27:40;;;;;;;112.47;7.15;;;0.40;99.90;;;-0.10;93.38;100116.34;5050882;28;20149;-50
2021/03/15 05:30:11;;;;;;;2.50;0.82;;;0.50;99.90;;;-0.10;92.98;100118.91;5048728;28;20036;-48
2021/03/15 05:32:50;;;;;;;2.08;0.57;;;0.50;99.90;;;-0.09;92.49;100115.41;5069912;28;20068;-48
2021/03/15 05:35:18;;;;;;;31.73;2.30;;;0.50;99.90;;;-0.04;92.77;100127.06;5051622;28;20032;-52
2021/03/15 05:37:47;;;;;;;1.55;0.60;;;0.50;99.90;;;0.01;92.36;100126.78;5052060;28;20060;-46
2021/03/15 05:40:20;;;;;;;4.70;0.35;;;0.60;99.90;;;0.04;91.99;100121.47;5049393;28;20104;-48
2021/03/15 05:43:06;;;;;;;4.03;0.73;;;0.60;99.90;;;0.05;91.76;100120.56;5050589;28;20057;-49
2021/03/15 05:45:53;;;;;;;;;;;0.60;99.90;;;0.07;91.02;100118.75;5050819;28;20519;-50
2021/03/15 05:48:41;;;;;;;2.38;0.43;;;0.60;99.90;;;0.21;92.40;100123.94;5051129;28;19921;-50
2021/03/15 05:52:00;;;;;;;2.63;0.80;;;0.70;99.90;;;1.05;89.42;100125.84;5046389;28;20067;-50
2021/03/15 05:54:47;;;;;;;1.73;0.40;;;1.00;99.90;;;1.64;85.40;100122.19;5042409;28;20135;-45
2021/03/15 05:57:57;;;;;;;1.98;0.50;;;1.40;99.90;;;1.90;82.82;100116.19;5070100;28;20040;-50
2021/03/15 06:01:05;;;;;;;421.10;36.22;;;1.70;99.90;;;1.36;85.66;100122.25;5064564;28;20036;-47
2021/03/15 06:04:10;;;;;;;4.78;0.50;;;1.70;99.90;;;1.43;87.16;100106.34;5029114;28;20695;-46
2021/03/15 06:06:41;;;;;;;14.50;1.38;;;2.30;99.90;;;1.98;87.72;100100.31;5047136;28;20492;-50
2021/03/15 06:09:18;;;;;;;3.25;0.73;;;3.60;99.90;;;2.76;85.21;100106.25;5047864;28;20128;-50
2021/03/15 06:11:54;;;;;;;2.63;0.80;;;5.30;99.90;;;3.30;81.70;100100.84;5062687;28;20032;-48
2021/03/15 06:14:23;;;;;;;1.67;0.57;;;6.20;99.90;;;3.73;80.37;100100.38;5047586;28;20059;-53
2021/03/15 06:16:49;;;;;;;3.45;0.63;;;6.30;99.90;;;3.63;77.89;100097.63;5034206;28;20060;-49
2021/03/15 06:19:16;;;;;;;3.28;0.75;;;5.70;99.90;;;3.22;79.83;100108.25;5039977;28;20076;-51
2021/03/15 06:21:43;;;;;;;2.45;0.60;;;4.80;99.90;;;2.75;81.34;100112.34;5045168;28;20480;-50
2021/03/15 06:24:10;;;;;;;2.08;0.60;;;3.90;99.90;;;2.26;82.50;100107.88;5047184;28;20041;-52
2021/03/15 06:26:38;;;;;;;4.47;0.85;;;3.20;99.90;;;2.03;82.34;100112.84;5046157;28;20416;-46
2021/03/15 06:29:04;;;;;;;4.05;1.13;;;2.80;99.90;;;1.83;83.52;100114.16;5048452;28;20032;-47
2021/03/15 06:31:34;;;;;;;4.10;0.73;;;2.50;99.90;;;1.77;82.79;100112.78;5045597;28;20515;-50
2021/03/15 06:34:00;;;;;;;2.35;0.70;;;2.40;99.90;;;1.88;84.09;100112.13;5050109;28;20034;-52
2021/03/15 06:36:32;;;;;;;4.82;0.65;;;2.40;99.90;;;1.94;83.24;100116.84;5046016;28;20119;-47
2021/03/15 06:39:00;;;;;;;3.53;1.08;;;2.50;99.90;;;1.91;82.68;100117.84;5049719;28;20037;-49
2021/03/15 06:41:28;;;;;;;4.22;1.23;;;2.50;99.90;;;1.92;84.00;100124.63;5045470;28;20442;-48
2021/03/15 06:43:54;;;;;;;2.63;0.70;;;2.50;99.90;;;1.94;84.18;100122.78;5047549;28;20396;-48
2021/03/15 06:46:20;;;;;;;4.55;0.80;;;2.50;99.90;;;2.00;84.07;100139.56;5048726;28;20067;-48
2021/03/15 06:48:46;;;;;;;2.90;0.73;;;2.60;99.90;;;2.08;83.72;100129.63;5049687;28;20063;-52
2021/03/15 06:51:13;;;;;;;5.07;0.93;;;2.60;99.90;;;2.20;83.67;100139.13;5043752;28;20044;-54
2021/03/15 06:53:41;;;;;;;4.50;0.90;;;2.70;99.90;;;2.22;83.75;100134.72;5048166;28;20056;-53
2021/03/15 06:56:17;;;;;;;2.55;0.70;;;2.80;99.90;;;2.36;82.43;100144.09;5045922;28;20036;-47
2021/03/15 06:58:53;;;;;;;7.20;0.90;;;3.10;99.90;;;2.50;81.48;100146.56;5049325;28;20472;-48
2021/03/15 07:01:25;;;;;;;2.33;0.50;;;3.20;99.90;;;2.55;80.88;100159.97;5037883;28;20041;-48
2021/03/15 07:04:09;;;;;;;2.28;0.73;;;3.20;99.90;;;2.46;80.92;100155.41;5031099;28;20037;-47
2021/03/15 07:06:45;;;;;;;2.67;0.70;;;3.10;99.90;;;2.55;81.43;100148.84;5039099;28;20091;-47
2021/03/15 07:09:12;;;;;;;;;;;3.10;99.90;;;2.71;79.53;100153.81;5036171;28;20041;-49
2021/03/15 07:11:38;;;;;;;3.42;1.15;;;3.20;99.90;;;2.77;80.85;100154.22;5042398;28;19917;-52
2021/03/15 07:14:04;;;;;;;2.78;0.80;;;3.30;99.90;;;2.89;80.86;100153.38;5046638;28;20140;-48
2021/03/15 07:16:33;;;;;;;2.58;0.70;;;3.40;99.90;;;2.96;79.42;100146.91;5067182;28;20122;-50
2021/03/15 07:19:04;;;;;;;4.45;0.63;;;3.40;99.90;;;2.99;79.29;100156.97;5067891;28;20033;-48
2021/03/15 07:21:33;;;;;;;2.85;1.13;;;3.50;99.90;;;3.24;79.09;100156.16;5057888;28;20033;-50
2021/03/15 07:24:00;;;;;;;5.70;0.98;;;3.60;99.90;;;3.31;77.65;100159.09;5057428;28;20448;-50
2021/03/15 07:26:31;;;;;;;2.15;1.10;;;3.80;99.90;;;3.39;78.35;100156.00;5048602;28;20035;-49
2021/03/15 07:28:58;;;;;;;2.80;0.90;;;3.80;99.90;;;3.60;78.71;100145.03;5065352;28;20052;-52
2021/03/15 07:31:32;;;;;;;2.33;0.82;;;4.00;99.90;;;3.76;76.96;100149.13;5067682;28;20451;-54
2021/03/15 07:33:57;;;;;;;6.00;0.95;;;4.10;99.90;;;3.96;76.88;100151.06;5052447;28;20036;-49
2021/03/15 07:36:32;;;;;;;2.55;0.65;;;4.40;99.90;;;4.12;77.37;100155.97;5061135;28;20040;-48
2021/03/15 07:39:00;;;;;;;4.90;1.00;;;4.50;99.90;;;4.43;76.65;100151.94;5059302;28;20147;-53
2021/03/15 07:41:26;;;;;;;4.30;1.10;;;4.80;99.90;;;4.64;76.15;100155.53;5066272;28;20036;-52
2021/03/15 07:43:53;;;;;;;2.65;0.65;;;5.00;99.90;;;4.60;75.26;100159.28;5066403;28;20036;-51
2021/03/15 07:46:27;;;;;;;4.28;1.10;;;5.10;99.90;;;4.59;73.75;100145.56;5066554;28;20039;-55
2021/03/15 07:48:59;;;;;;;3.65;0.60;;;5.00;99.90;;;4.73;74.16;100139.34;5055374;28;20122;-50
2021/03/15 07:51:32;;;;;;;6.57;1.00;;;5.10;99.90;;;5.02;74.19;100144.06;5062929;28;20028;-54
2021/03/15 07:54:23;;;;;;;2.78;0.73;;;5.30;99.90;;;5.16;70.76;100154.19;5059175;28;20044;-48
2021/03/15 07:57:13;;;;;;;1.83;0.47;;;5.50;99.90;;;5.08;70.23;100151.34;5049126;28;20238;-49
2021/03/15 07:59:45;;;;;;;3.28;0.75;;;5.60;99.90;;;5.30;74.11;100148.75;5051418;28;20091;-48
2021/03/15 08:02:23;;;;;;;3.22;1.17;;;5.60;99.90;;;5.38;72.79;100148.97;5050343;28;20495;-48
2021/03/15 08:04:51;;;;;;;1.92;0.40;;;5.80;99.90;;;5.54;71.92;100146.84;5055850;28;20191;-50
2021/03/15 08:07:20;;;;;;;2.42;0.50;;;6.00;99.90;;;5.66;72.37;100143.31;5043584;28;20064;-49
2021/03/15 08:09:49;;;;;;;1.65;0.60;;;6.10;99.90;;;5.90;72.06;100132.81;5062723;28;20033;-48
2021/03/15 08:12:17;;;;;;;1.95;0.75;;;6.30;99.90;;;6.15;70.80;100129.06;5053619;28;20103;-50
2021/03/15 08:14:46;;;;;;;3.20;1.10;;;6.50;99.90;;;6.09;70.15;100129.56;5027281;28;20041;-48
2021/03/15 08:17:19;;;;;;;1.52;0.68;;;6.60;99.90;;;6.11;69.89;100132.88;5025523;28;20038;-47
2021/03/15 08:19:47;;;;;;;2.20;0.40;;;6.60;99.90;;;6.27;70.79;100132.41;5027225;28;20038;-48
2021/03/15 08:22:23;;;;;;;1.65;0.40;;;6.60;99.90;;;6.58;69.16;100138.50;5028137;28;20042;-47
2021/03/15 08:24:51;;;;;;;;;;;6.80;99.90;;;6.51;65.58;100130.41;5030431;28;20445;-49
2021/03/15 08:27:19;;;;;;;1.58;0.50;;;6.90;99.90;;;6.71;69.96;100130.50;5030475;28;20292;-47
2021/03/15 08:29:47;;;;;;;2.60;0.35;;;7.10;99.90;;;6.88;69.92;100128.16;5032303;28;20022;-53
2021/03/15 08:32:15;;;;;;;1.00;0.38;;;7.20;99.90;;;7.15;69.34;100131.94;5032049;28;20116;-52
2021/03/15 08:34:42;;;;;;;2.05;0.70;;;7.50;99.90;;;7.58;68.37;100126.47;5032016;28;20030;-49
2021/03/15 08:37:08;;;;;;;1.80;0.45;;;7.80;99.90;;;7.72;67.53;100127.88;5030696;28;20041;-48
2021/03/15 08:39:40;;;;;;;1.63;0.38;;;8.10;99.90;;;7.85;65.19;100120.66;5027445;28;20029;-48
2021/03/15 08:42:09;;;;;;;1.67;0.50;;;8.20;99.90;;;7.72;67.01;100118.31;5030745;28;20124;-48
2021/03/15 08:44:46;;;;;;;1.88;0.60;;;8.10;99.90;;;8.11;64.45;100113.13;5031666;28;20485;-48
2021/03/15 08:47:33;;;;;;;2.35;0.43;;;8.40;99.90;;;8.07;65.55;100115.19;5031936;28;20057;-48
2021/03/15 08:49:59;;;;;;;1.63;0.30;;;8.40;99.90;;;8.21;65.39;100112.19;5031452;28;20048;-47
2021/03/15 08:52:35;;;;;;;2.55;0.50;;;8.50;99.90;;;8.36;62.09;100114.41;5030951;28;20393;-49
2021/03/15 08:55:01;;;;;;;0.90;0.20;;;8.60;99.90;;;8.43;64.33;100115.47;5028937;28;20034;-49
2021/03/15 08:57:35;;;;;;;2.45;0.50;;;8.80;98.20;;;8.50;60.22;100113.97;5030378;28;20473;-49
2021/03/15 09:00:34;;;;;;;1.20;0.30;;;8.80;97.70;;;8.60;57.31;100117.34;5031993;28;20025;-50
2021/03/15 09:03:00;;;;;;;2.97;0.30;;;8.80;95.30;;;8.69;61.84;100116.50;5026157;28;20049;-50
2021/03/15 09:05:46;;;;;;;2.95;0.43;;;8.90;96.40;;;8.85;61.45;100108.13;5032003;28;20041;-50
2021/03/15 09:08:15;;;;;;;2.77;0.30;;;9.10;95.80;;;8.75;60.94;100102.13;5031504;28;20144;-54
2021/03/15 09:10:54;;;;;;;1.30;0.40;;;9.30;91.20;;;8.74;55.67;100103.91;5030472;28;20280;-49
2021/03/15 09:13:29;;;;;;;1.63;0.20;;;9.30;88.20;;;8.83;57.91;100105.66;5030594;28;20489;-48
2021/03/15 09:15:59;;;;;;;2.17;0.25;;;9.30;90.70;;;9.07;58.48;100097.34;5045746;28;20045;-49
2021/03/15 09:18:48;;;;;;;0.50;0.20;;;9.50;88.70;;;9.34;55.10;100093.94;5043540;28;20036;-50
2021/03/15 09:21:23;;;;;;;1.10;0.22;;;9.70;85.80;;;9.73;57.53;100091.91;5043131;28;20052;-47
2021/03/15 09:23:55;;;;;;;4.82;0.30;;;10.10;90.30;;;9.85;56.75;100089.91;5035024;28;20084;-46
2021/03/15 09:26:44;;;;;;;0.88;0.30;;;10.20;88.60;;;9.67;49.49;100073.47;5034682;28;20216;-47
2021/03/15 09:29:14;;;;;;;0.63;0.30;;;10.20;75.90;;;9.45;55.35;100085.91;5034476;28;20036;-47
2021/03/15 09:32:04;;;;;;;0.65;0.30;;;10.00;76.70;;;9.57;53.92;100071.75;5031932;28;20128;-49
2021/03/15 09:34:30;;;;;;;2.08;0.30;;;9.90;80.50;;;9.71;56.22;100067.00;5032691;28;20136;-48
2021/03/15 09:36:58;;;;;;;2.13;0.50;;;9.90;81.40;;;9.91;55.68;100064.13;5036278;28;20029;-50
2021/03/15 09:39:27;;;;;;;1.77;0.77;;;10.20;82.10;;;9.82;55.62;100067.59;5033699;28;20116;-48
2021/03/15 09:42:08;;;;;;;2.53;0.40;;;10.30;78.10;;;10.10;54.37;100063.09;5045896;28;20037;-54
2021/03/15 09:44:42;;;;;;;1.00;0.30;;;10.40;80.80;;;10.46;54.59;100060.44;5049703;28;20037;-50
2021/03/15 09:47:11;;;;;;;1.13;0.38;;;10.70;82.00;;;10.86;53.85;100058.09;5048185;28;20361;-52
2021/03/15 09:49:43;;;;;;;2.50;0.60;;;11.10;80.90;;;11.14;53.40;100053.44;5044634;28;20071;-52
2021/03/15 09:52:24;;;;;;;1.92;0.50;;;11.30;80.90;;;11.67;52.28;100046.22;5048821;28;20082;-49
2021/03/15 09:54:53;;;;;;;0.90;0.30;;;11.80;80.70;;;11.96;51.85;100051.81;5036905;28;20041;-51
2021/03/15 09:57:20;;;;;;;1.23;0.28;;;12.20;79.00;;;12.14;52.37;100044.63;5032032;28;20390;-51
2021/03/15 09:59:47;;;;;;;3.38;0.63;;;12.40;78.80;;;12.23;51.42;100051.47;5050525;28;20548;-51
2021/03/15 10:02:29;;;;;;;0.98;0.30;;;12.60;75.40;;;11.68;45.86;100047.84;5049642;28;20045;-49
2021/03/15 10:04:55;;;;;;;1.60;0.50;;;12.40;67.70;;;11.43;51.43;100044.38;5045910;28;20091;-49
2021/03/15 10:07:21;;;;;;;1.48;0.43;;;12.10;70.20;;;11.59;50.50;100037.41;5049169;28;20065;-51
2021/03/15 10:09:47;;;;;;;0.80;0.20;;;12.10;73.00;;;11.73;51.51;100045.59;5050394;28;20310;-49
2021/03/15 10:12:16;;;;;;;0.88;0.10;;;12.10;72.10;;;11.83;49.79;100041.03;5041369;28;20612;-48
2021/03/15 10:14:41;;;;;;;1.15;0.20;;;12.20;69.90;;;12.11;49.35;100038.91;5053455;28;20488;-47
2021/03/15 10:17:08;;;;;;;0.88;0.40;;;12.50;69.10;;;12.19;48.66;100042.34;5050358;28;20059;-47
2021/03/15 10:19:34;;;;;;;0.77;0.20;;;12.50;68.50;;;12.15;48.52;100037.59;5062460;28;20074;-49
2021/03/15 10:22:16;;;;;;;1.40;0.20;;;12.60;67.50;;;11.91;44.44;100034.03;5070687;28;20032;-52
2021/03/15 10:24:44;;;;;;;0.55;0.10;;;12.40;63.40;;;12.00;45.07;100034.03;5054676;28;20032;-52
2021/03/15 10:27:21;;;;;;;0.90;0.17;;;12.30;65.00;;;11.97;43.11;100032.56;5053426;28;20041;-48
2021/03/15 10:30:01;;;;;;;1.20;0.17;;;12.40;63.70;;;12.19;42.24;100029.28;5050325;28;20033;-52
2021/03/15 10:32:29;;;;;;;1.85;0.17;;;12.50;61.80;;;12.62;46.56;100032.44;5063101;28;20090;-50
2021/03/15 10:34:57;;;;;;;2.00;0.10;;;12.80;66.50;;;12.51;46.28;100028.38;5067445;28;20078;-48
2021/03/15 10:37:25;;;;;;;1.85;0.15;;;12.90;64.30;;;12.58;46.21;100025.91;5068847;28;20113;-50
2021/03/15 10:39:56;;;;;;;1.33;0.20;;;13.00;63.30;;;12.40;44.66;100022.69;5046253;28;20032;-53
2021/03/15 10:42:23;;;;;;;2.67;0.20;;;12.80;61.40;;;12.75;45.96;100021.47;5039307;28;20620;-53